Terminal Aerodrome Forecast
Issued by NWS

Home | Current Version | Previous Version | Text Only | Print | Product List | Glossary On
Versions: 1 2 3 4 5 6 7 8 9 10 11 12 13 14
000
FTUS46 KLOX 311733
TAFSBA
TAF
KSBA 311733Z 3118/0118 17005KT P6SM SKC
     FM312100 24008KT P6SM SKC
     FM010300 VRB03KT P6SM SKC
     FM011100 12006KT 5SM BR BKN008=

USA.gov is the U.S. government's official web portal to all federal, state and local government web resources and services.